createdAt,value
2023-01-19T00:04:02.244Z,6.18
2023-01-19T00:09:03.949Z,6.38
2023-01-19T00:14:06.060Z,6.18
2023-01-19T00:19:08.712Z,6.00
2023-01-19T00:24:11.259Z,6.70
2023-01-19T00:29:13.948Z,5.85
2023-01-19T00:34:15.794Z,7.00
2023-01-19T00:39:17.415Z,6.13
2023-01-19T00:44:19.274Z,6.15
2023-01-19T00:49:20.901Z,6.68
2023-01-19T00:54:22.516Z,6.32
2023-01-19T00:59:25.790Z,5.60
2023-01-19T01:04:27.442Z,6.05
2023-01-19T01:09:29.262Z,5.97
2023-01-19T01:14:31.098Z,5.97
2023-01-19T01:19:32.897Z,5.82
2023-01-19T01:24:35.679Z,5.93
2023-01-19T01:29:37.837Z,5.45
2023-01-19T01:34:39.762Z,5.90
2023-01-19T01:39:41.430Z,5.70
2023-01-19T01:44:52.748Z,5.70
2023-01-19T01:50:09.963Z,5.22
2023-01-19T01:55:13.126Z,5.50
2023-01-19T02:00:15.561Z,5.55
2023-01-19T02:05:31.707Z,5.28
2023-01-19T02:10:52.464Z,5.80
2023-01-19T02:15:58.467Z,5.65
2023-01-19T02:21:15.063Z,5.90
2023-01-19T02:26:20.981Z,5.07
2023-01-19T02:31:23.010Z,5.53
2023-01-19T02:36:40.385Z,5.25
2023-01-19T02:41:47.712Z,5.63
2023-01-19T02:46:49.570Z,5.63
2023-01-19T02:51:51.199Z,5.18
2023-01-19T02:57:08.269Z,5.57
2023-01-19T03:02:33.341Z,5.55
2023-01-19T03:07:37.964Z,6.70
2023-01-19T03:12:50.174Z,6.35
2023-01-19T03:17:53.425Z,6.78
2023-01-19T03:23:05.301Z,7.55
2023-01-19T03:28:06.928Z,7.68
2023-01-19T03:33:14.676Z,7.18
2023-01-19T03:38:22.123Z,8.48
2023-01-19T03:43:25.101Z,8.40
2023-01-19T03:48:27.143Z,7.63
2023-01-19T03:53:28.966Z,7.80
2023-01-19T03:58:30.591Z,8.00
2023-01-19T04:03:32.178Z,7.03
2023-01-19T04:08:33.922Z,8.00
2023-01-19T04:13:36.406Z,7.05
2023-01-19T04:18:38.088Z,7.68
2023-01-19T04:23:39.746Z,7.50
2023-01-19T04:28:41.525Z,8.10
2023-01-19T04:33:43.334Z,7.85
2023-01-19T04:38:46.667Z,7.97
2023-01-19T04:43:49.227Z,8.52
2023-01-19T04:48:50.931Z,8.23
2023-01-19T04:53:52.571Z,8.82
2023-01-19T04:58:54.223Z,8.25
2023-01-19T05:03:59.026Z,8.98
2023-01-19T05:09:00.723Z,7.93
2023-01-19T05:14:02.327Z,7.68
2023-01-19T05:19:04.018Z,7.68
2023-01-19T05:24:06.003Z,8.18
2023-01-19T05:29:08.237Z,8.48
2023-01-19T05:34:11.933Z,8.00
2023-01-19T05:39:13.659Z,8.05
2023-01-19T05:44:15.359Z,8.07
2023-01-19T05:49:16.999Z,8.52
2023-01-19T05:54:19.010Z,8.80
2023-01-19T05:59:24.167Z,8.15
2023-01-19T06:04:26.908Z,8.85
2023-01-19T06:09:29.311Z,8.52
2023-01-19T06:14:31.378Z,8.35
2023-01-19T06:19:33.706Z,8.55
2023-01-19T06:24:35.757Z,8.98
2023-01-19T06:29:37.440Z,9.65
2023-01-19T06:34:43.760Z,8.88
2023-01-19T06:39:45.563Z,9.52
2023-01-19T06:44:48.016Z,9.10
2023-01-19T06:49:49.912Z,10.27
2023-01-19T06:54:51.504Z,10.65
2023-01-19T06:59:53.174Z,10.65
2023-01-19T07:04:55.492Z,10.20
2023-01-19T07:09:57.310Z,9.05
2023-01-19T07:14:58.899Z,9.57
2023-01-19T07:20:00.578Z,9.32
2023-01-19T07:25:02.627Z,9.32
2023-01-19T07:30:04.754Z,9.18
2023-01-19T07:35:06.661Z,8.98
2023-01-19T07:40:10.252Z,8.50
2023-01-19T07:45:11.925Z,9.10
2023-01-19T07:50:13.962Z,8.88
2023-01-19T07:55:15.674Z,16.48
2023-01-19T08:00:22.024Z,10.65
2023-01-19T08:05:23.876Z,11.57
2023-01-19T08:10:27.207Z,10.18
2023-01-19T08:15:28.887Z,9.63
2023-01-19T08:20:31.002Z,10.10
2023-01-19T08:25:34.351Z,10.10
2023-01-19T08:30:36.412Z,9.55
2023-01-19T08:35:43.048Z,8.90
2023-01-19T08:40:45.144Z,7.93
2023-01-19T08:45:51.566Z,7.85
2023-01-19T08:50:53.656Z,8.07
2023-01-19T08:56:01.303Z,8.05
2023-01-19T09:01:04.058Z,10.20
2023-01-19T09:06:07.573Z,9.75
2023-01-19T09:11:13.696Z,7.53
2023-01-19T09:16:15.935Z,5.10
2023-01-19T09:21:18.621Z,5.90
2023-01-19T09:26:22.261Z,6.53
2023-01-19T09:31:24.192Z,8.18
2023-01-19T09:36:26.767Z,9.32
2023-01-19T09:41:29.732Z,10.00
2023-01-19T09:46:40.357Z,10.45
2023-01-19T09:51:46.755Z,9.32
2023-01-19T09:56:52.417Z,8.07
2023-01-19T10:02:10.545Z,9.00
2023-01-19T10:07:37.987Z,9.55
2023-01-19T10:12:57.471Z,8.98
2023-01-19T10:18:34.913Z,6.25
2023-01-19T10:23:57.601Z,5.60
2023-01-19T10:29:04.395Z,5.28
2023-01-19T10:34:06.113Z,5.05
2023-01-19T10:39:11.584Z,4.93
2023-01-19T10:44:24.457Z,4.57
2023-01-19T10:49:40.461Z,3.95
2023-01-19T10:54:43.537Z,3.88
2023-01-19T10:59:45.249Z,3.88
2023-01-19T11:04:53.013Z,3.60
2023-01-19T11:10:23.066Z,5.30
2023-01-19T11:15:47.645Z,8.75
2023-01-19T11:20:55.370Z,6.78
2023-01-19T11:26:02.565Z,6.43
2023-01-19T11:31:10.505Z,4.60
2023-01-19T11:36:32.912Z,5.40
2023-01-19T11:41:37.566Z,5.63
2023-01-19T11:46:42.492Z,6.20
2023-01-19T11:51:58.839Z,6.65
2023-01-19T11:57:01.964Z,6.35
2023-01-19T12:02:16.609Z,7.57
2023-01-19T12:07:25.871Z,6.97
2023-01-19T12:12:31.683Z,6.80
2023-01-19T12:17:47.615Z,5.30
2023-01-19T12:22:59.771Z,4.50
2023-01-19T12:28:02.845Z,6.03
2023-01-19T12:33:20.641Z,4.70
2023-01-19T12:38:49.467Z,12.57
2023-01-19T12:44:22.361Z,4.20
2023-01-19T12:49:41.581Z,4.57
2023-01-19T12:55:03.009Z,4.80
2023-01-19T13:00:27.371Z,3.85
2023-01-19T13:05:33.233Z,3.53
2023-01-19T13:10:59.386Z,3.15
2023-01-19T13:16:29.989Z,3.08
2023-01-19T13:21:42.354Z,3.33
2023-01-19T13:26:55.016Z,3.00
2023-01-19T13:32:02.899Z,2.65
2023-01-19T13:37:06.278Z,12.30
2023-01-19T13:42:18.469Z,3.72
2023-01-19T13:47:36.798Z,4.47
2023-01-19T13:52:43.386Z,4.15
2023-01-19T13:57:46.743Z,4.78
2023-01-19T14:03:13.318Z,4.50
2023-01-19T14:08:18.104Z,4.50
2023-01-19T14:13:29.532Z,4.47
2023-01-19T14:18:33.899Z,4.07
2023-01-19T14:23:47.618Z,3.40
2023-01-19T14:28:49.645Z,3.55
2023-01-19T14:33:55.622Z,3.28
2023-01-19T14:39:00.049Z,3.70
2023-01-19T14:44:02.945Z,6.65
2023-01-19T14:49:06.487Z,6.57
2023-01-19T14:54:17.671Z,4.20
2023-01-19T14:59:19.372Z,11.18
2023-01-19T15:04:21.014Z,6.95
2023-01-19T15:09:23.107Z,10.02
2023-01-19T15:14:24.871Z,8.32
2023-01-19T15:19:27.004Z,6.47
2023-01-19T15:24:28.704Z,3.30
2023-01-19T15:29:32.252Z,5.80
2023-01-19T15:34:33.993Z,6.20
2023-01-19T15:39:35.825Z,3.65
2023-01-19T15:44:37.480Z,3.78
2023-01-19T15:49:39.144Z,3.60
2023-01-19T15:54:40.826Z,4.53
2023-01-19T15:59:42.439Z,7.47
2023-01-19T16:04:49.215Z,10.35
2023-01-19T16:09:50.828Z,10.77
2023-01-19T16:14:52.484Z,10.98
2023-01-19T16:19:54.182Z,12.23
2023-01-19T16:24:56.611Z,12.35
2023-01-19T16:30:04.605Z,11.75
2023-01-19T16:35:06.740Z,12.75
2023-01-19T16:40:09.590Z,13.13
2023-01-19T16:45:11.349Z,12.18
2023-01-19T16:50:13.345Z,12.00
2023-01-19T16:55:15.355Z,12.32
2023-01-19T17:00:17.401Z,13.25
2023-01-19T17:05:19.043Z,13.05
2023-01-19T17:10:20.817Z,13.90
2023-01-19T17:15:22.500Z,13.38
2023-01-19T17:20:24.165Z,13.38
2023-01-19T17:25:25.779Z,13.68
2023-01-19T17:30:27.447Z,12.48
2023-01-19T17:35:29.224Z,13.52
2023-01-19T17:40:31.059Z,13.05
2023-01-19T17:45:36.162Z,13.95
2023-01-19T17:50:37.833Z,14.27
2023-01-19T17:55:39.459Z,14.35
2023-01-19T18:00:41.104Z,11.60
2023-01-19T18:05:42.717Z,12.60
2023-01-19T18:10:44.319Z,14.57
2023-01-19T18:15:46.104Z,12.25
2023-01-19T18:20:47.821Z,11.43
2023-01-19T18:25:49.486Z,13.10
2023-01-19T18:30:51.182Z,11.90
2023-01-19T18:36:11.133Z,12.68
2023-01-19T18:41:15.625Z,13.02
2023-01-19T18:46:17.478Z,14.10
2023-01-19T18:51:19.990Z,14.20
2023-01-19T18:56:21.843Z,12.10
2023-01-19T19:01:31.554Z,13.32
2023-01-19T19:06:34.490Z,13.65
2023-01-19T19:11:36.486Z,13.85
2023-01-19T19:16:39.537Z,12.90
2023-01-19T19:21:42.408Z,13.60
2023-01-19T19:26:44.042Z,15.15
2023-01-19T19:31:46.441Z,14.18
2023-01-19T19:36:48.097Z,13.60
2023-01-19T19:41:49.866Z,13.25
2023-01-19T19:46:51.592Z,13.65
2023-01-19T19:51:53.254Z,14.88
2023-01-19T19:56:54.890Z,15.40
2023-01-19T20:01:56.756Z,16.55
2023-01-19T20:07:00.102Z,15.77
2023-01-19T20:12:01.969Z,16.17
2023-01-19T20:17:05.076Z,16.85
2023-01-19T20:22:07.483Z,15.50
2023-01-19T20:27:09.193Z,15.85
2023-01-19T20:32:10.910Z,15.75
2023-01-19T20:37:12.525Z,16.98
2023-01-19T20:42:16.435Z,15.30
2023-01-19T20:47:18.294Z,16.25
2023-01-19T20:52:21.554Z,17.23
2023-01-19T20:57:23.662Z,18.15
2023-01-19T21:02:28.424Z,16.50
2023-01-19T21:07:30.423Z,18.15
2023-01-19T21:12:32.121Z,15.90
2023-01-19T21:17:33.771Z,16.95
2023-01-19T21:22:35.384Z,18.27
2023-01-19T21:27:36.965Z,17.30
2023-01-19T21:32:39.001Z,17.33
2023-01-19T21:37:40.693Z,16.92
2023-01-19T21:42:42.291Z,17.05
2023-01-19T21:47:43.936Z,17.45
2023-01-19T21:52:45.556Z,17.02
2023-01-19T21:57:47.207Z,16.63
2023-01-19T22:03:03.087Z,17.80
2023-01-19T22:08:06.452Z,16.52
2023-01-19T22:13:08.201Z,15.50
2023-01-19T22:18:10.433Z,16.35
2023-01-19T22:23:12.536Z,16.63
2023-01-19T22:28:14.663Z,15.75
2023-01-19T22:33:16.339Z,16.40
2023-01-19T22:38:18.030Z,15.88
2023-01-19T22:43:19.639Z,15.00
2023-01-19T22:48:22.279Z,15.38
2023-01-19T22:53:23.886Z,16.85
2023-01-19T22:58:25.534Z,16.55
2023-01-19T23:03:29.005Z,15.13
2023-01-19T23:08:30.952Z,15.63
2023-01-19T23:13:32.912Z,16.63
2023-01-19T23:18:34.768Z,15.15
2023-01-19T23:23:36.900Z,18.13
2023-01-19T23:28:39.541Z,15.48
2023-01-19T23:33:41.641Z,15.80
2023-01-19T23:38:48.873Z,16.63
2023-01-19T23:43:51.360Z,15.93
2023-01-19T23:48:53.272Z,16.05
2023-01-19T23:53:55.850Z,13.98
2023-01-19T23:59:09.611Z,15.38
